^^
Station Historical Data
Daily Summary for May 8, 2017 Units:  Both    English   Metric
« Previous Day
Next Day »
Daily Weekly Monthly Yearly Custom
  High: Low: Average:
Temperature: 78.1 °F /  25.6 °C 51.6 °F /  10.9 °C 63.1 °F /  17.3 °C
Dew Point: 44.4 °F /  6.9 °C 37.0 °F /  2.8 °C 40.5 °F /  4.7 °C
Humidity: 67% 24% 46%
Wind Speed: 8.9mph /  14.3km/h - 0.6mph /  1km/h
Wind Gust: 16.0mph /  25.7km/h - -
Wind- - SSW
Pressure: 30.03 in /  1016.8 hPa 29.92 in /  1013.1 hPa -
Precipitation: 0.00 in /  0 mm    
Historical Graphs
 
 
Tabular Data for May 8, 2017
Time Temperature Dew Point Pressure Wind Wind Speed Wind Gust Humidity Rainfall Rate (Hourly) solar Conditions
00:02 56.3 °F /  13.5 °C 41.7 °F /  5.4 °C 29.94in /  1013.8hPa Calm   2.0mph /  3.2km/h 58% 0.00in /  0mm 0.0 W/m2
00:08 56.1 °F /  13.4 °C 41.5 °F /  5.3 °C 29.94in /  1013.8hPa Calm     58% 0.00in /  0mm 0.0 W/m2
00:14 55.9 °F /  13.3 °C 41.9 °F /  5.5 °C 29.94in /  1013.8hPa Calm     59% 0.00in /  0mm 0.0 W/m2
00:20 55.9 °F /  13.3 °C 41.9 °F /  5.5 °C 29.94in /  1013.8hPa Calm     59% 0.00in /  0mm 0.0 W/m2
00:27 55.8 °F /  13.2 °C 42.1 °F /  5.6 °C 29.94in /  1013.8hPa Calm     60% 0.00in /  0mm 0.0 W/m2
00:33 55.4 °F /  13 °C 41.7 °F /  5.4 °C 29.94in /  1013.8hPa Calm     60% 0.00in /  0mm 0.0 W/m2
00:39 55.2 °F /  12.9 °C 41.5 °F /  5.3 °C 29.94in /  1013.8hPa Calm   2.0mph /  3.2km/h 60% 0.00in /  0mm 0.0 W/m2
00:45 54.9 °F /  12.7 °C 41.7 °F /  5.4 °C 29.94in /  1013.8hPa Calm   1.0mph /  1.6km/h 61% 0.00in /  0mm 0.0 W/m2
00:51 54.7 °F /  12.6 °C 41.5 °F /  5.3 °C 29.94in /  1013.8hPa Calm     61% 0.00in /  0mm 0.0 W/m2
00:57 54.7 °F /  12.6 °C 41.9 °F /  5.5 °C 29.94in /  1013.8hPa Calm     62% 0.00in /  0mm 0.0 W/m2
01:04 54.3 °F /  12.4 °C 41.5 °F /  5.3 °C 29.94in /  1013.8hPa Calm     62% 0.00in /  0mm 0.0 W/m2
01:10 54.3 °F /  12.4 °C 41.5 °F /  5.3 °C 29.94in /  1013.8hPa Calm     62% 0.00in /  0mm 0.0 W/m2
01:16 54.1 °F /  12.3 °C 41.9 °F /  5.5 °C 29.95in /  1014.1hPa Calm     63% 0.00in /  0mm 0.0 W/m2
01:22 54.1 °F /  12.3 °C 41.9 °F /  5.5 °C 29.95in /  1014.1hPa Calm   1.0mph /  1.6km/h 63% 0.00in /  0mm 0.0 W/m2
01:28 54.1 °F /  12.3 °C 41.9 °F /  5.5 °C 29.95in /  1014.1hPa Calm     63% 0.00in /  0mm 0.0 W/m2
01:34 54.1 °F /  12.3 °C 41.9 °F /  5.5 °C 29.95in /  1014.1hPa Calm   1.0mph /  1.6km/h 63% 0.00in /  0mm 0.0 W/m2
01:40 54.0 °F /  12.2 °C 41.7 °F /  5.4 °C 29.95in /  1014.1hPa East 2.0mph /  3.2km/h 2.0mph /  3.2km/h 63% 0.00in /  0mm 0.0 W/m2
01:47 54.0 °F /  12.2 °C 41.7 °F /  5.4 °C 29.95in /  1014.1hPa Calm   3.0mph /  4.8km/h 63% 0.00in /  0mm 0.0 W/m2
01:53 53.8 °F /  12.1 °C 41.9 °F /  5.5 °C 29.95in /  1014.1hPa Calm   1.0mph /  1.6km/h 64% 0.00in /  0mm 0.0 W/m2
01:59 53.8 °F /  12.1 °C 41.9 °F /  5.5 °C 29.95in /  1014.1hPa Calm   1.0mph /  1.6km/h 64% 0.00in /  0mm 0.0 W/m2
02:05 53.8 °F /  12.1 °C 41.5 °F /  5.3 °C 29.95in /  1014.1hPa Calm   3.0mph /  4.8km/h 63% 0.00in /  0mm 0.0 W/m2
02:11 53.8 °F /  12.1 °C 41.5 °F /  5.3 °C 29.95in /  1014.1hPa Calm   2.0mph /  3.2km/h 63% 0.00in /  0mm 0.0 W/m2
02:17 53.8 °F /  12.1 °C 41.5 °F /  5.3 °C 29.95in /  1014.1hPa Calm     63% 0.00in /  0mm 0.0 W/m2
02:23 54.0 °F /  12.2 °C 41.7 °F /  5.4 °C 29.95in /  1014.1hPa Calm   1.0mph /  1.6km/h 63% 0.00in /  0mm 0.0 W/m2
02:30 54.0 °F /  12.2 °C 41.7 °F /  5.4 °C 29.95in /  1014.1hPa Calm   2.0mph /  3.2km/h 63% 0.00in /  0mm 0.0 W/m2
02:36 54.0 °F /  12.2 °C 41.7 °F /  5.4 °C 29.95in /  1014.1hPa East 0.9mph /  1.4km/h 4.0mph /  6.4km/h 63% 0.00in /  0mm 0.0 W/m2
02:42 54.0 °F /  12.2 °C 41.7 °F /  5.4 °C 29.95in /  1014.1hPa ENE 2.0mph /  3.2km/h 2.0mph /  3.2km/h 63% 0.00in /  0mm 0.0 W/m2
02:48 54.0 °F /  12.2 °C 41.7 °F /  5.4 °C 29.95in /  1014.1hPa Calm   1.0mph /  1.6km/h 63% 0.00in /  0mm 0.0 W/m2
02:54 53.8 °F /  12.1 °C 41.5 °F /  5.3 °C 29.95in /  1014.1hPa East 0.9mph /  1.4km/h 2.0mph /  3.2km/h 63% 0.00in /  0mm 0.0 W/m2
03:00 53.6 °F /  12 °C 41.4 °F /  5.2 °C 29.94in /  1013.8hPa ENE 0.9mph /  1.4km/h 1.0mph /  1.6km/h 63% 0.00in /  0mm 0.0 W/m2
03:06 53.4 °F /  11.9 °C 41.2 °F /  5.1 °C 29.95in /  1014.1hPa Calm     63% 0.00in /  0mm 0.0 W/m2
03:13 53.2 °F /  11.8 °C 41.4 °F /  5.2 °C 29.95in /  1014.1hPa Calm   1.0mph /  1.6km/h 64% 0.00in /  0mm 0.0 W/m2
03:19 53.1 °F /  11.7 °C 41.2 °F /  5.1 °C 29.95in /  1014.1hPa Calm   2.0mph /  3.2km/h 64% 0.00in /  0mm 0.0 W/m2
03:25 52.9 °F /  11.6 °C 41.4 °F /  5.2 °C 29.95in /  1014.1hPa Calm   1.0mph /  1.6km/h 65% 0.00in /  0mm 0.0 W/m2
03:31 52.9 °F /  11.6 °C 41.4 °F /  5.2 °C 29.95in /  1014.1hPa ENE 0.9mph /  1.4km/h 3.0mph /  4.8km/h 65% 0.00in /  0mm 0.0 W/m2
03:37 52.7 °F /  11.5 °C 41.2 °F /  5.1 °C 29.95in /  1014.1hPa NNE 0.9mph /  1.4km/h 1.0mph /  1.6km/h 65% 0.00in /  0mm 0.0 W/m2
03:43 52.5 °F /  11.4 °C 41.2 °F /  5.1 °C 29.95in /  1014.1hPa SE 0.9mph /  1.4km/h 2.0mph /  3.2km/h 65% 0.00in /  0mm 0.0 W/m2
03:49 52.5 °F /  11.4 °C 41.2 °F /  5.1 °C 29.95in /  1014.1hPa East 2.0mph /  3.2km/h 4.0mph /  6.4km/h 65% 0.00in /  0mm 0.0 W/m2
03:55 52.7 °F /  11.5 °C 41.2 °F /  5.1 °C 29.95in /  1014.1hPa Calm   1.0mph /  1.6km/h 65% 0.00in /  0mm 0.0 W/m2
04:02 52.5 °F /  11.4 °C 41.2 °F /  5.1 °C 29.96in /  1014.4hPa Calm   3.0mph /  4.8km/h 65% 0.00in /  0mm 0.0 W/m2
04:08 52.5 °F /  11.4 °C 41.2 °F /  5.1 °C 29.95in /  1014.1hPa Calm   3.0mph /  4.8km/h 65% 0.00in /  0mm 0.0 W/m2
04:14 52.5 °F /  11.4 °C 41.2 °F /  5.1 °C 29.95in /  1014.1hPa Calm   2.0mph /  3.2km/h 65% 0.00in /  0mm 0.0 W/m2
04:20 52.3 °F /  11.3 °C 41.0 °F /  5 °C 29.95in /  1014.1hPa Calm   2.0mph /  3.2km/h 65% 0.00in /  0mm 0.0 W/m2
04:26 52.2 °F /  11.2 °C 41.2 °F /  5.1 °C 29.96in /  1014.4hPa Calm   1.0mph /  1.6km/h 66% 0.00in /  0mm 0.0 W/m2
04:32 52.0 °F /  11.1 °C 41.0 °F /  5 °C 29.96in /  1014.4hPa Calm   3.0mph /  4.8km/h 66% 0.00in /  0mm 0.0 W/m2
04:38 52.0 °F /  11.1 °C 41.4 °F /  5.2 °C 29.96in /  1014.4hPa Calm   2.0mph /  3.2km/h 67% 0.00in /  0mm 0.0 W/m2
04:45 51.6 °F /  10.9 °C 40.6 °F /  4.8 °C 29.96in /  1014.4hPa ENE 2.0mph /  3.2km/h 2.0mph /  3.2km/h 66% 0.00in /  0mm 0.0 W/m2
04:51 51.8 °F /  11 °C 40.8 °F /  4.9 °C 29.96in /  1014.4hPa ENE 0.9mph /  1.4km/h 2.0mph /  3.2km/h 66% 0.00in /  0mm 0.0 W/m2
04:57 52.0 °F /  11.1 °C 41.0 °F /  5 °C 29.96in /  1014.4hPa Calm   3.0mph /  4.8km/h 66% 0.00in /  0mm 0.0 W/m2
05:03 52.0 °F /  11.1 °C 40.6 °F /  4.8 °C 29.96in /  1014.4hPa Calm   2.0mph /  3.2km/h 65% 0.00in /  0mm 0.0 W/m2
05:09 52.2 °F /  11.2 °C 40.8 °F /  4.9 °C 29.96in /  1014.4hPa Calm   1.0mph /  1.6km/h 65% 0.00in /  0mm 0.0 W/m2
05:15 52.3 °F /  11.3 °C 41.0 °F /  5 °C 29.96in /  1014.4hPa Calm   2.0mph /  3.2km/h 65% 0.00in /  0mm 0.0 W/m2
05:22 52.5 °F /  11.4 °C 40.6 °F /  4.8 °C 29.97in /  1014.8hPa ESE 0.9mph /  1.4km/h 5.0mph /  8km/h 64% 0.00in /  0mm 0.0 W/m2
05:28 52.9 °F /  11.6 °C 40.6 °F /  4.8 °C 29.97in /  1014.8hPa Calm   3.0mph /  4.8km/h 63% 0.00in /  0mm 0.0 W/m2
05:34 52.9 °F /  11.6 °C 40.6 °F /  4.8 °C 29.97in /  1014.8hPa East 0.9mph /  1.4km/h 4.0mph /  6.4km/h 63% 0.00in /  0mm 0.0 W/m2
05:40 52.9 °F /  11.6 °C 40.6 °F /  4.8 °C 29.97in /  1014.8hPa Calm   4.0mph /  6.4km/h 63% 0.00in /  0mm 0.0 W/m2
05:46 52.9 °F /  11.6 °C 40.6 °F /  4.8 °C 29.97in /  1014.8hPa East 0.9mph /  1.4km/h 2.0mph /  3.2km/h 63% 0.00in /  0mm 0.0 W/m2
05:52 52.7 °F /  11.5 °C 40.5 °F /  4.7 °C 29.98in /  1015.1hPa NE 2.0mph /  3.2km/h 4.0mph /  6.4km/h 63% 0.00in /  0mm 0.0 W/m2
05:58 52.5 °F /  11.4 °C 40.3 °F /  4.6 °C 29.98in /  1015.1hPa ENE 0.9mph /  1.4km/h 3.0mph /  4.8km/h 63% 0.00in /  0mm 0.0 W/m2
06:05 52.5 °F /  11.4 °C 40.6 °F /  4.8 °C 29.98in /  1015.1hPa Calm   1.0mph /  1.6km/h 64% 0.00in /  0mm 0.0 W/m2
06:11 52.3 °F /  11.3 °C 40.5 °F /  4.7 °C 29.98in /  1015.1hPa East 0.9mph /  1.4km/h 1.0mph /  1.6km/h 64% 0.00in /  0mm 0.0 W/m2
06:17 52.2 °F /  11.2 °C 40.3 °F /  4.6 °C 29.98in /  1015.1hPa Calm   1.0mph /  1.6km/h 64% 0.00in /  0mm 5.0 W/m2
06:23 52.2 °F /  11.2 °C 40.3 °F /  4.6 °C 29.98in /  1015.1hPa Calm     64% 0.00in /  0mm 7.0 W/m2
06:29 52.2 °F /  11.2 °C 40.8 °F /  4.9 °C 29.99in /  1015.5hPa Calm     65% 0.00in /  0mm 12.0 W/m2
06:35 52.0 °F /  11.1 °C 40.6 °F /  4.8 °C 29.99in /  1015.5hPa Calm   1.0mph /  1.6km/h 65% 0.00in /  0mm 18.0 W/m2
06:41 52.0 °F /  11.1 °C 40.6 °F /  4.8 °C 29.99in /  1015.5hPa Calm     65% 0.00in /  0mm 21.0 W/m2
06:48 52.2 °F /  11.2 °C 40.8 °F /  4.9 °C 29.99in /  1015.5hPa Calm     65% 0.00in /  0mm 26.0 W/m2
06:54 52.2 °F /  11.2 °C 41.2 °F /  5.1 °C 30.00in /  1015.8hPa Calm     66% 0.00in /  0mm 28.0 W/m2
07:00 52.2 °F /  11.2 °C 40.8 °F /  4.9 °C 30.00in /  1015.8hPa Calm     65% 0.00in /  0mm 39.0 W/m2
07:06 52.3 °F /  11.3 °C 41.0 °F /  5 °C 30.01in /  1016.1hPa Calm     65% 0.00in /  0mm 51.0 W/m2
07:12 52.5 °F /  11.4 °C 40.6 °F /  4.8 °C 30.01in /  1016.1hPa Calm     64% 0.00in /  0mm 60.0 W/m2
07:18 53.1 °F /  11.7 °C 41.2 °F /  5.1 °C 30.01in /  1016.1hPa Calm   2.0mph /  3.2km/h 64% 0.00in /  0mm 67.0 W/m2
07:24 53.4 °F /  11.9 °C 41.2 °F /  5.1 °C 30.02in /  1016.5hPa East 0.9mph /  1.4km/h 1.0mph /  1.6km/h 63% 0.00in /  0mm 77.0 W/m2
07:30 54.1 °F /  12.3 °C 41.9 °F /  5.5 °C 30.02in /  1016.5hPa Calm     63% 0.00in /  0mm 83.0 W/m2
07:37 54.7 °F /  12.6 °C 42.3 °F /  5.7 °C 30.02in /  1016.5hPa Calm     63% 0.00in /  0mm 86.0 W/m2
07:43 55.0 °F /  12.8 °C 42.6 °F /  5.9 °C 30.02in /  1016.5hPa Calm     63% 0.00in /  0mm 70.0 W/m2
07:49 55.6 °F /  13.1 °C 42.3 °F /  5.7 °C 30.02in /  1016.5hPa Calm     61% 0.00in /  0mm 51.0 W/m2
07:55 56.5 °F /  13.6 °C 42.8 °F /  6 °C 30.02in /  1016.5hPa Calm   1.0mph /  1.6km/h 60% 0.00in /  0mm 54.0 W/m2
08:01 57.2 °F /  14 °C 42.1 °F /  5.6 °C 30.02in /  1016.5hPa Calm     57% 0.00in /  0mm 72.0 W/m2
08:07 57.9 °F /  14.4 °C 42.3 °F /  5.7 °C 30.02in /  1016.5hPa Calm     56% 0.00in /  0mm 90.0 W/m2
08:13 59.0 °F /  15 °C 42.4 °F /  5.8 °C 30.03in /  1016.8hPa Calm     54% 0.00in /  0mm 105.0 W/m2
08:19 60.3 °F /  15.7 °C 42.1 °F /  5.6 °C 30.03in /  1016.8hPa Calm     51% 0.00in /  0mm 265.0 W/m2
08:26 61.5 °F /  16.4 °C 42.3 °F /  5.7 °C 30.03in /  1016.8hPa Calm     49% 0.00in /  0mm 142.0 W/m2
08:32 62.2 °F /  16.8 °C 44.4 °F /  6.9 °C 30.03in /  1016.8hPa Calm     52% 0.00in /  0mm 104.0 W/m2
08:38 62.8 °F /  17.1 °C 42.3 °F /  5.7 °C 30.03in /  1016.8hPa Calm     47% 0.00in /  0mm 139.0 W/m2
08:44 63.5 °F /  17.5 °C 42.3 °F /  5.7 °C 30.03in /  1016.8hPa West 0.9mph /  1.4km/h 2.0mph /  3.2km/h 46% 0.00in /  0mm 510.0 W/m2
08:50 64.0 °F /  17.8 °C 41.7 °F /  5.4 °C 30.03in /  1016.8hPa WNW 2.0mph /  3.2km/h 3.0mph /  4.8km/h 44% 0.00in /  0mm 529.0 W/m2
08:56 64.8 °F /  18.2 °C 42.3 °F /  5.7 °C 30.03in /  1016.8hPa Calm   3.0mph /  4.8km/h 44% 0.00in /  0mm 548.0 W/m2
09:02 65.7 °F /  18.7 °C 42.6 °F /  5.9 °C 30.03in /  1016.8hPa WSW 2.9mph /  4.7km/h 3.0mph /  4.8km/h 43% 0.00in /  0mm 557.0 W/m2
09:08 66.4 °F /  19.1 °C 41.9 °F /  5.5 °C 30.03in /  1016.8hPa West 0.9mph /  1.4km/h 4.0mph /  6.4km/h 41% 0.00in /  0mm 568.0 W/m2
09:15 67.1 °F /  19.5 °C 42.6 °F /  5.9 °C 30.03in /  1016.8hPa Calm   1.0mph /  1.6km/h 41% 0.00in /  0mm 543.0 W/m2
09:21 67.8 °F /  19.9 °C 41.9 °F /  5.5 °C 30.03in /  1016.8hPa North 2.9mph /  4.7km/h 4.0mph /  6.4km/h 39% 0.00in /  0mm 613.0 W/m2
09:27 68.7 °F /  20.4 °C 42.1 °F /  5.6 °C 30.03in /  1016.8hPa Calm   2.0mph /  3.2km/h 38% 0.00in /  0mm 631.0 W/m2
09:33 69.3 °F /  20.7 °C 41.2 °F /  5.1 °C 30.03in /  1016.8hPa NNW 2.9mph /  4.7km/h 5.0mph /  8km/h 36% 0.00in /  0mm 622.0 W/m2
09:39 70.0 °F /  21.1 °C 41.7 °F /  5.4 °C 30.03in /  1016.8hPa Calm   1.0mph /  1.6km/h 36% 0.00in /  0mm 626.0 W/m2
09:45 70.3 °F /  21.3 °C 42.1 °F /  5.6 °C 30.03in /  1016.8hPa Calm   2.0mph /  3.2km/h 36% 0.00in /  0mm 642.0 W/m2
09:51 70.5 °F /  21.4 °C 42.3 °F /  5.7 °C 30.03in /  1016.8hPa Calm   2.0mph /  3.2km/h 36% 0.00in /  0mm 661.0 W/m2
09:57 70.3 °F /  21.3 °C 42.8 °F /  6 °C 30.03in /  1016.8hPa WNW 0.9mph /  1.4km/h 2.0mph /  3.2km/h 37% 0.00in /  0mm 679.0 W/m2
10:04 70.9 °F /  21.6 °C 43.3 °F /  6.3 °C 30.03in /  1016.8hPa Calm   5.0mph /  8km/h 37% 0.00in /  0mm 691.0 W/m2
10:10 71.1 °F /  21.7 °C 42.8 °F /  6 °C 30.03in /  1016.8hPa Calm   5.0mph /  8km/h 36% 0.00in /  0mm 700.0 W/m2
10:16 71.4 °F /  21.9 °C 42.3 °F /  5.7 °C 30.03in /  1016.8hPa Calm   1.0mph /  1.6km/h 35% 0.00in /  0mm 712.0 W/m2
10:22 71.8 °F /  22.1 °C 43.3 °F /  6.3 °C 30.02in /  1016.5hPa WNW 0.9mph /  1.4km/h 3.0mph /  4.8km/h 36% 0.00in /  0mm 722.0 W/m2
10:28 72.1 °F /  22.3 °C 42.3 °F /  5.7 °C 30.02in /  1016.5hPa Calm   5.0mph /  8km/h 34% 0.00in /  0mm 728.0 W/m2
10:34 72.7 °F /  22.6 °C 43.5 °F /  6.4 °C 30.02in /  1016.5hPa NW 0.9mph /  1.4km/h 5.0mph /  8km/h 35% 0.00in /  0mm 742.0 W/m2
10:40 72.9 °F /  22.7 °C 42.8 °F /  6 °C 30.02in /  1016.5hPa NNW 2.9mph /  4.7km/h 5.0mph /  8km/h 34% 0.00in /  0mm 749.0 W/m2
10:47 73.2 °F /  22.9 °C 43.2 °F /  6.2 °C 30.01in /  1016.1hPa Calm   5.0mph /  8km/h 34% 0.00in /  0mm 573.0 W/m2
10:53 73.2 °F /  22.9 °C 43.2 °F /  6.2 °C 30.01in /  1016.1hPa NNW 0.9mph /  1.4km/h 1.0mph /  1.6km/h 34% 0.00in /  0mm 796.0 W/m2
10:59 73.8 °F /  23.2 °C 43.7 °F /  6.5 °C 30.01in /  1016.1hPa NNW 2.0mph /  3.2km/h 6.0mph /  9.7km/h 34% 0.00in /  0mm 745.0 W/m2
11:05 74.3 °F /  23.5 °C 43.3 °F /  6.3 °C 30.01in /  1016.1hPa Calm   1.0mph /  1.6km/h 33% 0.00in /  0mm 766.0 W/m2
11:11 74.3 °F /  23.5 °C 43.3 °F /  6.3 °C 30.00in /  1015.8hPa NNW 2.0mph /  3.2km/h 6.0mph /  9.7km/h 33% 0.00in /  0mm 638.0 W/m2
11:17 74.5 °F /  23.6 °C 42.6 °F /  5.9 °C 30.00in /  1015.8hPa Calm   2.0mph /  3.2km/h 32% 0.00in /  0mm 763.0 W/m2
11:23 74.5 °F /  23.6 °C 43.5 °F /  6.4 °C 30.00in /  1015.8hPa Calm   3.0mph /  4.8km/h 33% 0.00in /  0mm 770.0 W/m2
11:29 74.7 °F /  23.7 °C 43.7 °F /  6.5 °C 30.00in /  1015.8hPa NNW 2.0mph /  3.2km/h 4.0mph /  6.4km/h 33% 0.00in /  0mm 773.0 W/m2
11:35 74.8 °F /  23.8 °C 43.0 °F /  6.1 °C 29.99in /  1015.5hPa WSW 0.9mph /  1.4km/h 4.0mph /  6.4km/h 32% 0.00in /  0mm 775.0 W/m2
11:42 74.7 °F /  23.7 °C 42.8 °F /  6 °C 29.99in /  1015.5hPa Calm   4.0mph /  6.4km/h 32% 0.00in /  0mm 777.0 W/m2
11:48 74.8 °F /  23.8 °C 43.9 °F /  6.6 °C 29.99in /  1015.5hPa Calm   3.0mph /  4.8km/h 33% 0.00in /  0mm 786.0 W/m2
11:54 74.8 °F /  23.8 °C 43.9 °F /  6.6 °C 29.98in /  1015.1hPa West 6.0mph /  9.7km/h 6.0mph /  9.7km/h 33% 0.00in /  0mm 788.0 W/m2
12:00 75.0 °F /  23.9 °C 43.2 °F /  6.2 °C 29.98in /  1015.1hPa Calm   4.0mph /  6.4km/h 32% 0.00in /  0mm 784.0 W/m2
12:06 75.4 °F /  24.1 °C 42.6 °F /  5.9 °C 29.98in /  1015.1hPa Calm   1.0mph /  1.6km/h 31% 0.00in /  0mm 766.0 W/m2
12:12 75.6 °F /  24.2 °C 43.7 °F /  6.5 °C 29.97in /  1014.8hPa Calm   4.0mph /  6.4km/h 32% 0.00in /  0mm 759.0 W/m2
12:18 75.9 °F /  24.4 °C 43.2 °F /  6.2 °C 29.97in /  1014.8hPa Calm   4.0mph /  6.4km/h 31% 0.00in /  0mm 759.0 W/m2
12:24 76.5 °F /  24.7 °C 42.8 °F /  6 °C 29.97in /  1014.8hPa NNW 0.9mph /  1.4km/h 5.0mph /  8km/h 30% 0.00in /  0mm 763.0 W/m2
12:31 76.6 °F /  24.8 °C 42.1 °F /  5.6 °C 29.97in /  1014.8hPa North 2.9mph /  4.7km/h 8.0mph /  12.9km/h 29% 0.00in /  0mm 754.0 W/m2
12:37 76.6 °F /  24.8 °C 42.1 °F /  5.6 °C 29.96in /  1014.4hPa Calm   1.0mph /  1.6km/h 29% 0.00in /  0mm 749.0 W/m2
12:43 76.8 °F /  24.9 °C 41.2 °F /  5.1 °C 29.96in /  1014.4hPa Calm   9.0mph /  14.5km/h 28% 0.00in /  0mm 747.0 W/m2
12:49 77.0 °F /  25 °C 40.5 °F /  4.7 °C 29.96in /  1014.4hPa Calm   3.0mph /  4.8km/h 27% 0.00in /  0mm 742.0 W/m2
12:55 76.5 °F /  24.7 °C 41.0 °F /  5 °C 29.95in /  1014.1hPa NNW 2.0mph /  3.2km/h 4.0mph /  6.4km/h 28% 0.00in /  0mm 737.0 W/m2
13:01 76.6 °F /  24.8 °C 40.1 °F /  4.5 °C 29.95in /  1014.1hPa North 4.0mph /  6.4km/h 7.0mph /  11.3km/h 27% 0.00in /  0mm 742.0 W/m2
13:07 76.8 °F /  24.9 °C 40.3 °F /  4.6 °C 29.94in /  1013.8hPa SE 0.9mph /  1.4km/h 4.0mph /  6.4km/h 27% 0.00in /  0mm 751.0 W/m2
13:14 77.4 °F /  25.2 °C 40.8 °F /  4.9 °C 29.94in /  1013.8hPa NE 2.0mph /  3.2km/h 16.0mph /  25.7km/h 27% 0.00in /  0mm 751.0 W/m2
13:20 77.5 °F /  25.3 °C 39.0 °F /  3.9 °C 29.94in /  1013.8hPa West 0.9mph /  1.4km/h 4.0mph /  6.4km/h 25% 0.00in /  0mm 759.0 W/m2
13:26 76.8 °F /  24.9 °C 41.2 °F /  5.1 °C 29.94in /  1013.8hPa NW 4.0mph /  6.4km/h 5.0mph /  8km/h 28% 0.00in /  0mm 740.0 W/m2
13:32 76.8 °F /  24.9 °C 41.2 °F /  5.1 °C 29.94in /  1013.8hPa Calm   1.0mph /  1.6km/h 28% 0.00in /  0mm 696.0 W/m2
13:38 77.2 °F /  25.1 °C 39.6 °F /  4.2 °C 29.93in /  1013.4hPa North 0.9mph /  1.4km/h 4.0mph /  6.4km/h 26% 0.00in /  0mm 715.0 W/m2
13:44 77.2 °F /  25.1 °C 40.6 °F /  4.8 °C 29.93in /  1013.4hPa Calm   5.0mph /  8km/h 27% 0.00in /  0mm 694.0 W/m2
13:50 77.4 °F /  25.2 °C 39.7 °F /  4.3 °C 29.93in /  1013.4hPa South 2.0mph /  3.2km/h 3.0mph /  4.8km/h 26% 0.00in /  0mm 673.0 W/m2
13:56 77.2 °F /  25.1 °C 38.7 °F /  3.7 °C 29.93in /  1013.4hPa Calm   5.0mph /  8km/h 25% 0.00in /  0mm 668.0 W/m2
14:03 77.4 °F /  25.2 °C 39.7 °F /  4.3 °C 29.93in /  1013.4hPa North 2.9mph /  4.7km/h 10.0mph /  16.1km/h 26% 0.00in /  0mm 656.0 W/m2
14:09 77.7 °F /  25.4 °C 41.0 °F /  5 °C 29.93in /  1013.4hPa NNE 0.9mph /  1.4km/h 2.0mph /  3.2km/h 27% 0.00in /  0mm 647.0 W/m2
14:15 78.1 °F /  25.6 °C 40.5 °F /  4.7 °C 29.93in /  1013.4hPa SW 0.9mph /  1.4km/h 2.0mph /  3.2km/h 26% 0.00in /  0mm 626.0 W/m2
14:21 78.1 °F /  25.6 °C 40.5 °F /  4.7 °C 29.93in /  1013.4hPa Calm   7.0mph /  11.3km/h 26% 0.00in /  0mm 608.0 W/m2
14:27 78.1 °F /  25.6 °C 40.5 °F /  4.7 °C 29.93in /  1013.4hPa SW 2.9mph /  4.7km/h 5.0mph /  8km/h 26% 0.00in /  0mm 598.0 W/m2
14:33 77.7 °F /  25.4 °C 40.1 °F /  4.5 °C 29.92in /  1013.1hPa Calm   7.0mph /  11.3km/h 26% 0.00in /  0mm 561.0 W/m2
14:39 77.9 °F /  25.5 °C 39.2 °F /  4 °C 29.93in /  1013.4hPa NNE 2.0mph /  3.2km/h 8.0mph /  12.9km/h 25% 0.00in /  0mm 531.0 W/m2
14:46 77.9 °F /  25.5 °C 38.1 °F /  3.4 °C 29.92in /  1013.1hPa NNW 6.0mph /  9.7km/h 6.0mph /  9.7km/h 24% 0.00in /  0mm 517.0 W/m2
14:52 78.1 °F /  25.6 °C 40.5 °F /  4.7 °C 29.92in /  1013.1hPa NNW 0.9mph /  1.4km/h 4.0mph /  6.4km/h 26% 0.00in /  0mm 494.0 W/m2
14:58 78.1 °F /  25.6 °C 39.4 °F /  4.1 °C 29.92in /  1013.1hPa North 2.9mph /  4.7km/h 5.0mph /  8km/h 25% 0.00in /  0mm 475.0 W/m2
15:04 77.9 °F /  25.5 °C 38.1 °F /  3.4 °C 29.92in /  1013.1hPa NE 6.0mph /  9.7km/h 6.0mph /  9.7km/h 24% 0.00in /  0mm 457.0 W/m2
15:10 77.5 °F /  25.3 °C 39.0 °F /  3.9 °C 29.92in /  1013.1hPa Calm   1.0mph /  1.6km/h 25% 0.00in /  0mm 431.0 W/m2
15:16 77.5 °F /  25.3 °C 37.9 °F /  3.3 °C 29.92in /  1013.1hPa NW 2.9mph /  4.7km/h 5.0mph /  8km/h 24% 0.00in /  0mm 410.0 W/m2
15:22 77.4 °F /  25.2 °C 38.8 °F /  3.8 °C 29.92in /  1013.1hPa North 2.0mph /  3.2km/h 4.0mph /  6.4km/h 25% 0.00in /  0mm 387.0 W/m2
15:28 77.2 °F /  25.1 °C 38.7 °F /  3.7 °C 29.92in /  1013.1hPa Calm   1.0mph /  1.6km/h 25% 0.00in /  0mm 364.0 W/m2
15:35 76.5 °F /  24.7 °C 39.0 °F /  3.9 °C 29.92in /  1013.1hPa West 0.9mph /  1.4km/h 5.0mph /  8km/h 26% 0.00in /  0mm 339.0 W/m2
15:41 75.7 °F /  24.3 °C 37.4 °F /  3 °C 29.92in /  1013.1hPa NNE 2.0mph /  3.2km/h 3.0mph /  4.8km/h 25% 0.00in /  0mm 58.0 W/m2
15:47 75.6 °F /  24.2 °C 37.2 °F /  2.9 °C 29.92in /  1013.1hPa NNW 6.0mph /  9.7km/h 7.0mph /  11.3km/h 25% 0.00in /  0mm 44.0 W/m2
15:53 75.4 °F /  24.1 °C 38.1 °F /  3.4 °C 29.92in /  1013.1hPa Calm   3.0mph /  4.8km/h 26% 0.00in /  0mm 46.0 W/m2
15:59 75.2 °F /  24 °C 37.9 °F /  3.3 °C 29.92in /  1013.1hPa West 8.9mph /  14.3km/h 9.0mph /  14.5km/h 26% 0.00in /  0mm 42.0 W/m2
16:05 74.8 °F /  23.8 °C 37.6 °F /  3.1 °C 29.92in /  1013.1hPa North 0.9mph /  1.4km/h 5.0mph /  8km/h 26% 0.00in /  0mm 40.0 W/m2
16:11 74.5 °F /  23.6 °C 37.4 °F /  3 °C 29.92in /  1013.1hPa NNW 2.9mph /  4.7km/h 6.0mph /  9.7km/h 26% 0.00in /  0mm 33.0 W/m2
16:17 74.1 °F /  23.4 °C 37.9 °F /  3.3 °C 29.93in /  1013.4hPa Calm   2.0mph /  3.2km/h 27% 0.00in /  0mm 30.0 W/m2
16:23 73.9 °F /  23.3 °C 37.8 °F /  3.2 °C 29.93in /  1013.4hPa WNW 2.0mph /  3.2km/h 3.0mph /  4.8km/h 27% 0.00in /  0mm 28.0 W/m2
16:29 73.8 °F /  23.2 °C 38.7 °F /  3.7 °C 29.93in /  1013.4hPa Calm   2.0mph /  3.2km/h 28% 0.00in /  0mm 26.0 W/m2
16:35 73.6 °F /  23.1 °C 38.5 °F /  3.6 °C 29.93in /  1013.4hPa Calm   3.0mph /  4.8km/h 28% 0.00in /  0mm 25.0 W/m2
16:41 73.2 °F /  22.9 °C 38.1 °F /  3.4 °C 29.93in /  1013.4hPa Calm   1.0mph /  1.6km/h 28% 0.00in /  0mm 23.0 W/m2
16:47 72.9 °F /  22.7 °C 37.8 °F /  3.2 °C 29.93in /  1013.4hPa WSW 0.9mph /  1.4km/h 1.0mph /  1.6km/h 28% 0.00in /  0mm 21.0 W/m2
16:53 72.7 °F /  22.6 °C 37.8 °F /  3.2 °C 29.93in /  1013.4hPa Calm   1.0mph /  1.6km/h 28% 0.00in /  0mm 18.0 W/m2
16:59 72.1 °F /  22.3 °C 39.0 °F /  3.9 °C 29.94in /  1013.8hPa Calm   1.0mph /  1.6km/h 30% 0.00in /  0mm 14.0 W/m2
17:05 72.0 °F /  22.2 °C 38.8 °F /  3.8 °C 29.94in /  1013.8hPa Calm   1.0mph /  1.6km/h 30% 0.00in /  0mm 12.0 W/m2
17:11 71.4 °F /  21.9 °C 39.2 °F /  4 °C 29.94in /  1013.8hPa Calm   1.0mph /  1.6km/h 31% 0.00in /  0mm 9.0 W/m2
17:17 70.9 °F /  21.6 °C 38.7 °F /  3.7 °C 29.94in /  1013.8hPa Calm     31% 0.00in /  0mm 7.0 W/m2
17:23 70.5 °F /  21.4 °C 38.5 °F /  3.6 °C 29.95in /  1014.1hPa Calm     31% 0.00in /  0mm 0.0 W/m2
17:29 70.0 °F /  21.1 °C 37.0 °F /  2.8 °C 29.95in /  1014.1hPa Calm   1.0mph /  1.6km/h 30% 0.00in /  0mm 0.0 W/m2
17:35 69.4 °F /  20.8 °C 38.3 °F /  3.5 °C 29.95in /  1014.1hPa Calm     32% 0.00in /  0mm 0.0 W/m2
17:41 69.1 °F /  20.6 °C 37.9 °F /  3.3 °C 29.95in /  1014.1hPa Calm     32% 0.00in /  0mm 0.0 W/m2
17:47 68.5 °F /  20.3 °C 39.0 °F /  3.9 °C 29.96in /  1014.4hPa Calm     34% 0.00in /  0mm 0.0 W/m2
17:53 68.0 °F /  20 °C 39.4 °F /  4.1 °C 29.96in /  1014.4hPa Calm     35% 0.00in /  0mm 0.0 W/m2
17:59 67.5 °F /  19.7 °C 38.8 °F /  3.8 °C 29.96in /  1014.4hPa Calm     35% 0.00in /  0mm 0.0 W/m2
18:06 66.7 °F /  19.3 °C 39.0 °F /  3.9 °C 29.96in /  1014.4hPa Calm     36% 0.00in /  0mm 0.0 W/m2
18:12 66.4 °F /  19.1 °C 39.4 °F /  4.1 °C 29.96in /  1014.4hPa Calm     37% 0.00in /  0mm 0.0 W/m2
18:18 65.7 °F /  18.7 °C 39.4 °F /  4.1 °C 29.96in /  1014.4hPa Calm   1.0mph /  1.6km/h 38% 0.00in /  0mm 0.0 W/m2
18:24 65.1 °F /  18.4 °C 38.8 °F /  3.8 °C 29.97in /  1014.8hPa Calm     38% 0.00in /  0mm 0.0 W/m2
18:30 64.8 °F /  18.2 °C 39.2 °F /  4 °C 29.97in /  1014.8hPa Calm     39% 0.00in /  0mm 0.0 W/m2
18:36 64.4 °F /  18 °C 38.8 °F /  3.8 °C 29.97in /  1014.8hPa Calm     39% 0.00in /  0mm 0.0 W/m2
18:42 64.0 °F /  17.8 °C 39.9 °F /  4.4 °C 29.97in /  1014.8hPa Calm     41% 0.00in /  0mm 0.0 W/m2
18:48 63.7 °F /  17.6 °C 39.6 °F /  4.2 °C 29.97in /  1014.8hPa Calm     41% 0.00in /  0mm 0.0 W/m2
18:55 63.3 °F /  17.4 °C 39.2 °F /  4 °C 29.98in /  1015.1hPa Calm     41% 0.00in /  0mm 0.0 W/m2
19:01 63.1 °F /  17.3 °C 39.0 °F /  3.9 °C 29.98in /  1015.1hPa Calm     41% 0.00in /  0mm 0.0 W/m2
19:07 62.8 °F /  17.1 °C 39.4 °F /  4.1 °C 29.98in /  1015.1hPa Calm     42% 0.00in /  0mm 0.0 W/m2
19:13 62.6 °F /  17 °C 39.7 °F /  4.3 °C 29.98in /  1015.1hPa Calm     43% 0.00in /  0mm 0.0 W/m2
19:19 62.4 °F /  16.9 °C 40.3 °F /  4.6 °C 29.99in /  1015.5hPa Calm     44% 0.00in /  0mm 0.0 W/m2
19:25 62.1 °F /  16.7 °C 40.5 °F /  4.7 °C 29.99in /  1015.5hPa Calm   1.0mph /  1.6km/h 45% 0.00in /  0mm 0.0 W/m2
19:31 61.9 °F /  16.6 °C 39.7 °F /  4.3 °C 29.99in /  1015.5hPa Calm     44% 0.00in /  0mm 0.0 W/m2
19:38 61.7 °F /  16.5 °C 39.6 °F /  4.2 °C 29.99in /  1015.5hPa ESE 2.0mph /  3.2km/h 2.0mph /  3.2km/h 44% 0.00in /  0mm 0.0 W/m2
19:44 61.5 °F /  16.4 °C 39.4 °F /  4.1 °C 29.99in /  1015.5hPa Calm   3.0mph /  4.8km/h 44% 0.00in /  0mm 0.0 W/m2
19:50 61.5 °F /  16.4 °C 39.4 °F /  4.1 °C 30.00in /  1015.8hPa Calm     44% 0.00in /  0mm 0.0 W/m2
19:56 61.5 °F /  16.4 °C 39.4 °F /  4.1 °C 30.00in /  1015.8hPa Calm     44% 0.00in /  0mm 0.0 W/m2
20:02 61.3 °F /  16.3 °C 39.2 °F /  4 °C 30.00in /  1015.8hPa Calm   1.0mph /  1.6km/h 44% 0.00in /  0mm 0.0 W/m2
20:10 61.2 °F /  16.2 °C 39.7 °F /  4.3 °C 30.00in /  1015.8hPa Calm     45% 0.00in /  0mm 0.0 W/m2
20:16 61.0 °F /  16.1 °C 40.1 °F /  4.5 °C 30.01in /  1016.1hPa Calm   1.0mph /  1.6km/h 46% 0.00in /  0mm 0.0 W/m2
20:22 60.6 °F /  15.9 °C 39.7 °F /  4.3 °C 30.01in /  1016.1hPa ENE 0.9mph /  1.4km/h 4.0mph /  6.4km/h 46% 0.00in /  0mm 0.0 W/m2
20:28 60.4 °F /  15.8 °C 39.6 °F /  4.2 °C 30.01in /  1016.1hPa Calm   1.0mph /  1.6km/h 46% 0.00in /  0mm 0.0 W/m2
20:34 60.3 °F /  15.7 °C 39.9 °F /  4.4 °C 30.01in /  1016.1hPa Calm   3.0mph /  4.8km/h 47% 0.00in /  0mm 0.0 W/m2
20:40 60.1 °F /  15.6 °C 39.2 °F /  4 °C 30.01in /  1016.1hPa Calm   2.0mph /  3.2km/h 46% 0.00in /  0mm 0.0 W/m2
20:46 60.1 °F /  15.6 °C 39.2 °F /  4 °C 30.01in /  1016.1hPa NNE 2.0mph /  3.2km/h 3.0mph /  4.8km/h 46% 0.00in /  0mm 0.0 W/m2
20:52 59.9 °F /  15.5 °C 39.0 °F /  3.9 °C 30.01in /  1016.1hPa Calm   1.0mph /  1.6km/h 46% 0.00in /  0mm 0.0 W/m2
20:58 59.7 °F /  15.4 °C 38.8 °F /  3.8 °C 30.02in /  1016.5hPa Calm   1.0mph /  1.6km/h 46% 0.00in /  0mm 0.0 W/m2
21:04 59.5 °F /  15.3 °C 38.7 °F /  3.7 °C 30.02in /  1016.5hPa Calm   1.0mph /  1.6km/h 46% 0.00in /  0mm 0.0 W/m2
21:10 59.4 °F /  15.2 °C 38.7 °F /  3.7 °C 30.02in /  1016.5hPa Calm   1.0mph /  1.6km/h 46% 0.00in /  0mm 0.0 W/m2
21:16 59.2 °F /  15.1 °C 38.5 °F /  3.6 °C 30.02in /  1016.5hPa Calm   1.0mph /  1.6km/h 46% 0.00in /  0mm 0.0 W/m2
21:22 58.8 °F /  14.9 °C 38.1 °F /  3.4 °C 30.02in /  1016.5hPa Calm   2.0mph /  3.2km/h 46% 0.00in /  0mm 0.0 W/m2
21:28 58.6 °F /  14.8 °C 38.5 °F /  3.6 °C 30.02in /  1016.5hPa East 0.9mph /  1.4km/h 1.0mph /  1.6km/h 47% 0.00in /  0mm 0.0 W/m2
21:34 58.5 °F /  14.7 °C 38.8 °F /  3.8 °C 30.03in /  1016.8hPa Calm   1.0mph /  1.6km/h 48% 0.00in /  0mm 0.0 W/m2
21:40 58.3 °F /  14.6 °C 38.1 °F /  3.4 °C 30.03in /  1016.8hPa Calm     47% 0.00in /  0mm 0.0 W/m2
21:46 57.9 °F /  14.4 °C 38.3 °F /  3.5 °C 30.02in /  1016.5hPa Calm     48% 0.00in /  0mm 0.0 W/m2
21:52 57.7 °F /  14.3 °C 38.7 °F /  3.7 °C 30.03in /  1016.8hPa Calm     49% 0.00in /  0mm 0.0 W/m2
21:58 57.6 °F /  14.2 °C 38.5 °F /  3.6 °C 30.03in /  1016.8hPa Calm     49% 0.00in /  0mm 0.0 W/m2
22:04 57.0 °F /  13.9 °C 38.5 °F /  3.6 °C 30.02in /  1016.5hPa Calm     50% 0.00in /  0mm 0.0 W/m2
22:10 56.8 °F /  13.8 °C 38.8 °F /  3.8 °C 30.03in /  1016.8hPa Calm     51% 0.00in /  0mm 0.0 W/m2
22:16 56.7 °F /  13.7 °C 38.7 °F /  3.7 °C 30.02in /  1016.5hPa Calm     51% 0.00in /  0mm 0.0 W/m2
22:22 56.3 °F /  13.5 °C 38.8 °F /  3.8 °C 30.02in /  1016.5hPa Calm   1.0mph /  1.6km/h 52% 0.00in /  0mm 0.0 W/m2
22:28 56.1 °F /  13.4 °C 38.7 °F /  3.7 °C 30.02in /  1016.5hPa East 0.9mph /  1.4km/h 2.0mph /  3.2km/h 52% 0.00in /  0mm 0.0 W/m2
22:34 55.9 °F /  13.3 °C 38.5 °F /  3.6 °C 30.02in /  1016.5hPa Calm     52% 0.00in /  0mm 0.0 W/m2
22:40 55.8 °F /  13.2 °C 38.5 °F /  3.6 °C 30.02in /  1016.5hPa Calm     52% 0.00in /  0mm 0.0 W/m2
22:46 55.8 °F /  13.2 °C 38.5 °F /  3.6 °C 30.02in /  1016.5hPa Calm   1.0mph /  1.6km/h 52% 0.00in /  0mm 0.0 W/m2
22:52 55.8 °F /  13.2 °C 38.5 °F /  3.6 °C 30.02in /  1016.5hPa Calm   1.0mph /  1.6km/h 52% 0.00in /  0mm 0.0 W/m2
22:58 55.6 °F /  13.1 °C 38.7 °F /  3.7 °C 30.02in /  1016.5hPa Calm   3.0mph /  4.8km/h 53% 0.00in /  0mm 0.0 W/m2
23:04 55.8 °F /  13.2 °C 38.5 °F /  3.6 °C 30.02in /  1016.5hPa ESE 0.9mph /  1.4km/h 3.0mph /  4.8km/h 52% 0.00in /  0mm 0.0 W/m2
23:10 55.9 °F /  13.3 °C 38.5 °F /  3.6 °C 30.02in /  1016.5hPa Calm   1.0mph /  1.6km/h 52% 0.00in /  0mm 0.0 W/m2
23:16 55.9 °F /  13.3 °C 39.0 °F /  3.9 °C 30.02in /  1016.5hPa Calm     53% 0.00in /  0mm 0.0 W/m2
23:22 55.9 °F /  13.3 °C 39.0 °F /  3.9 °C 30.02in /  1016.5hPa Calm     53% 0.00in /  0mm 0.0 W/m2
23:29 55.9 °F /  13.3 °C 39.0 °F /  3.9 °C 30.02in /  1016.5hPa Calm   1.0mph /  1.6km/h 53% 0.00in /  0mm 0.0 W/m2
23:35 55.8 °F /  13.2 °C 38.8 °F /  3.8 °C 30.01in /  1016.1hPa Calm   1.0mph /  1.6km/h 53% 0.00in /  0mm 0.0 W/m2
23:41 55.8 °F /  13.2 °C 38.8 °F /  3.8 °C 30.01in /  1016.1hPa Calm   1.0mph /  1.6km/h 53% 0.00in /  0mm 0.0 W/m2
23:47 55.6 °F /  13.1 °C 39.2 °F /  4 °C 30.01in /  1016.1hPa Calm     54% 0.00in /  0mm 0.0 W/m2
23:53 55.4 °F /  13 °C 39.0 °F /  3.9 °C 30.01in /  1016.1hPa Calm   1.0mph /  1.6km/h 54% 0.00in /  0mm 0.0 W/m2
23:59 55.0 °F /  12.8 °C 39.2 °F /  4 °C 30.01in /  1016.1hPa Calm   1.0mph /  1.6km/h 55% 0.00in /  0mm 0.0 W/m2
Olympia, Windhoek, Namibia
Compliments of Weather Underground - 3 mb